Stove Tradition — LAHD5 — position and weather

sailwx.info

Track history (hours):
 
Tides and Currents Weather Stations Pressure Air Temp Water Temp Dewpoint Dewpoint Depression Visibility Wind Speed Wind Dir Waves Ship Positions

Stove Tradition

Last reported at 2015-Jan-13 09:31 UTC. Time now 2015-Feb-28 02:05 UTC.
Position N 54°19' E 004°59'.
Warning: this ship's position is 45 days out of date.

Length 186 m; draft 6.3 m.

Type: Ship. MMSI: 259962000.

Date/timePositionNaut miles runAvg speedWind from/ knotsBaromVisibWave heightAir tempDewpointWater temp
2015-Jan-13 09:31N 54°19' E 004°59'2812.2
2015-Jan-13 07:13N 53°51' E 004°52'16812.8
2015-Jan-12 18:07N 51°32' E 002°17'915.1
2015-Jan-12 17:33N 51°24' E 002°12'1514.9
2015-Jan-12 16:33N 51°12' E 001°59'9 9.2
2015-Jan-12 15:32N 51°04' E 001°51'0 0.1
2015-Jan-12 13:29N 51°04' E 001°51'0 0.0
2015-Jan-12 12:29N 51°04' E 001°51'0 0.0
2015-Jan-12 11:29N 51°04' E 001°51'0 0.0
2015-Jan-12 10:23N 51°04' E 001°51'0 0.0
2015-Jan-12 09:32N 51°04' E 001°51'0 0.0
2015-Jan-12 08:32N 51°04' E 001°51'0 0.0
2015-Jan-12 07:32N 51°04' E 001°51'0 0.0
2015-Jan-12 06:26N 51°04' E 001°51'0 0.0
2015-Jan-12 05:20N 51°04' E 001°51'0 0.0
2015-Jan-12 04:26N 51°04' E 001°51'0 0.0
2015-Jan-12 03:29N 51°04' E 001°51'0 0.0
2015-Jan-12 02:20N 51°04' E 001°51'0 0.0
2015-Jan-12 01:20N 51°04' E 001°51'0 0.0
2015-Jan-12 00:32N 51°04' E 001°51'0 0.1
2015-Jan-11 23:26N 51°04' E 001°51'0 0.0
2015-Jan-11 22:32N 51°04' E 001°51'0 0.1
2015-Jan-11 21:11N 51°04' E 001°51'0 0.0
2015-Jan-11 20:32N 51°04' E 001°51'0 0.1
2015-Jan-11 19:32N 51°04' E 001°51'0 0.0
2015-Jan-11 18:32N 51°04' E 001°51'0 0.0
2015-Jan-11 17:32N 51°04' E 001°51'0 0.0
2015-Jan-11 16:32N 51°04' E 001°51'0 0.1
2015-Jan-11 15:32N 51°04' E 001°51'4 3.5
2015-Jan-11 14:30N 51°03' E 001°56'1010.7
2015-Jan-11 13:33N 51°03' E 002°12'5 4.5
2015-Jan-11 12:24N 51°03' E 002°20'0 0.3
2015-Jan-11 11:33N 51°03' E 002°20'0 0.1
2015-Jan-11 08:26N 51°03' E 002°19'0 0.0
2015-Jan-11 07:08N 51°03' E 002°19'0 0.0
2015-Jan-11 02:32N 51°03' E 002°19'0 0.0
2015-Jan-10 23:05N 51°03' E 002°19'0 0.0
2015-Jan-10 21:08N 51°03' E 002°19'0 0.0
2015-Jan-10 18:23N 51°03' E 002°19'0 0.0
2015-Jan-09 22:14N 51°03' E 002°19'0 0.0
2015-Jan-09 16:20N 51°03' E 002°19'0 0.0
2015-Jan-09 15:26N 51°03' E 002°19'1 0.2
2015-Jan-09 12:25N 51°03' E 002°20'1 0.6
2015-Jan-09 11:32N 51°03' E 002°21'10 9.0
2015-Jan-09 10:28N 51°03' E 002°06'1010.5
2015-Jan-09 09:29N 51°02' E 001°49'2 0.6
2015-Jan-09 06:04N 51°03' E 001°47'0 0.1
2015-Jan-09 01:20N 51°03' E 001°48'5 6.7
2015-Jan-09 00:33N 51°03' E 001°39'20 9.9
2015-Jan-08 22:33N 51°21' E 001°52'1312.8
2015-Jan-08 21:33N 51°32' E 002°04'1212.0
2015-Jan-08 20:33N 51°41' E 002°17'14210.7
2015-Jan-08 07:14N 53°34' E 004°38'26 9.6
2015-Jan-08 04:29N 53°59' E 004°51'6 9.3
2015-Jan-08 03:51N 54°05' E 004°52'  
2015-Jan-04 12:26N 66°34' E 011°19'8 8.5
2015-Jan-04 11:26N 66°41' E 011°30'96 9.5
2015-Jan-04 01:17N 67°56' E 014°06'  
Track history (hours):
 
Tides and Currents Weather Stations Pressure Air Temp Water Temp Dewpoint Dewpoint Depression Visibility Wind Speed Wind Dir Waves Ship Positions

Stove Tradition

Last reported at 2015-Jan-13 09:31 UTC. Time now 2015-Feb-28 02:05 UTC.
Position N 54°19' E 004°59'.
Warning: this ship's position is 45 days out of date.

Length 186 m; draft 6.3 m.

Type: Ship. MMSI: 259962000.

Date/timePositionNaut miles runAvg speedWind from/ knotsBaromVisibWave heightAir tempDewpointWater temp
2015-Jan-13 09:31N 54°19' E 004°59'2812.2
2015-Jan-13 07:13N 53°51' E 004°52'16812.8
2015-Jan-12 18:07N 51°32' E 002°17'915.1
2015-Jan-12 17:33N 51°24' E 002°12'1514.9
2015-Jan-12 16:33N 51°12' E 001°59'9 9.2
2015-Jan-12 15:32N 51°04' E 001°51'0 0.1
2015-Jan-12 13:29N 51°04' E 001°51'0 0.0
2015-Jan-12 12:29N 51°04' E 001°51'0 0.0
2015-Jan-12 11:29N 51°04' E 001°51'0 0.0
2015-Jan-12 10:23N 51°04' E 001°51'0 0.0
2015-Jan-12 09:32N 51°04' E 001°51'0 0.0
2015-Jan-12 08:32N 51°04' E 001°51'0 0.0
2015-Jan-12 07:32N 51°04' E 001°51'0 0.0
2015-Jan-12 06:26N 51°04' E 001°51'0 0.0
2015-Jan-12 05:20N 51°04' E 001°51'0 0.0
2015-Jan-12 04:26N 51°04' E 001°51'0 0.0
2015-Jan-12 03:29N 51°04' E 001°51'0 0.0
2015-Jan-12 02:20N 51°04' E 001°51'0 0.0
2015-Jan-12 01:20N 51°04' E 001°51'0 0.0
2015-Jan-12 00:32N 51°04' E 001°51'0 0.1
2015-Jan-11 23:26N 51°04' E 001°51'0 0.0
2015-Jan-11 22:32N 51°04' E 001°51'0 0.1
2015-Jan-11 21:11N 51°04' E 001°51'0 0.0
2015-Jan-11 20:32N 51°04' E 001°51'0 0.1
2015-Jan-11 19:32N 51°04' E 001°51'0 0.0
2015-Jan-11 18:32N 51°04' E 001°51'0 0.0
2015-Jan-11 17:32N 51°04' E 001°51'0 0.0
2015-Jan-11 16:32N 51°04' E 001°51'0 0.1
2015-Jan-11 15:32N 51°04' E 001°51'4 3.5
2015-Jan-11 14:30N 51°03' E 001°56'1010.7
2015-Jan-11 13:33N 51°03' E 002°12'5 4.5
2015-Jan-11 12:24N 51°03' E 002°20'0 0.3
2015-Jan-11 11:33N 51°03' E 002°20'0 0.1
2015-Jan-11 08:26N 51°03' E 002°19'0 0.0
2015-Jan-11 07:08N 51°03' E 002°19'0 0.0
2015-Jan-11 02:32N 51°03' E 002°19'0 0.0
2015-Jan-10 23:05N 51°03' E 002°19'0 0.0
2015-Jan-10 21:08N 51°03' E 002°19'0 0.0
2015-Jan-10 18:23N 51°03' E 002°19'0 0.0
2015-Jan-09 22:14N 51°03' E 002°19'0 0.0
2015-Jan-09 16:20N 51°03' E 002°19'0 0.0
2015-Jan-09 15:26N 51°03' E 002°19'1 0.2
2015-Jan-09 12:25N 51°03' E 002°20'1 0.6
2015-Jan-09 11:32N 51°03' E 002°21'10 9.0
2015-Jan-09 10:28N 51°03' E 002°06'1010.5
2015-Jan-09 09:29N 51°02' E 001°49'2 0.6
2015-Jan-09 06:04N 51°03' E 001°47'0 0.1
2015-Jan-09 01:20N 51°03' E 001°48'5 6.7
2015-Jan-09 00:33N 51°03' E 001°39'20 9.9
2015-Jan-08 22:33N 51°21' E 001°52'1312.8
2015-Jan-08 21:33N 51°32' E 002°04'1212.0
2015-Jan-08 20:33N 51°41' E 002°17'14210.7
2015-Jan-08 07:14N 53°34' E 004°38'26 9.6
2015-Jan-08 04:29N 53°59' E 004°51'6 9.3
2015-Jan-08 03:51N 54°05' E 004°52'  
2015-Jan-04 12:26N 66°34' E 011°19'8 8.5
2015-Jan-04 11:26N 66°41' E 011°30'96 9.5
2015-Jan-04 01:17N 67°56' E 014°06'  

Dump ship's entire track history